Hulbert, OK (74441)

10:25 PM CST del 22 novembre 2014 (GMT -0600)
Muskogee River Bend | Change Station
CLOSE
Current Station
Stazione meteo personale
Location: Muskogee, OK
Altitudine: 543 ft
Stazioni meteo nelle vicinanze

Alt. 543 ft 35.79 °N, 95.32 °W | Updated 4 seconds ago

Coperto
Coperto
55.4 °F
Sembra 55.4 °F
N
0.0
Vento Variabile Vento da Nord
Gusts 8.0 mph

Oggi
Massima -- | Minima -- °F
--% Possibilità di precip.
Ieri
Massima -- | Minima -- °F
Precip. -- in
7:04 AM 5:09 PM
Luna nuova, 1% visible
Pressione 29.76 in
Visibilità 7.0 miglia
Nuvole Nubi sparse 600 ft
Molto nuvoloso 4000 ft
Coperto 4900 ft
Punto di rugiada 55 °F
Umidità 98%
Piovosità 1.16 in
Spessore del manto nevoso Non disponibile.
Raggi UV 0 fuori da 12
Polline .50 fuori da 12
Qualità dell'aria Non disponibile.
Flu Activity Non disponibile.
METAR KTQH 230415Z AUTO 13014G18KT 7SM SCT006 BKN040 OVC049 12/11 A2976 RMK AO2

More Conditions Fewer Conditions

Pressione 29.76 in
Visibilità 7.0 miglia
Nuvole Nubi sparse 600 ft
Molto nuvoloso 4000 ft
Coperto 4900 ft
Punto di rugiada 55 °F
Umidità 98%
Piovosità 1.16 in
Spessore del manto nevoso Non disponibile.
Raggi UV 0 fuori da 12
Polline .50 fuori da 12
Qualità dell'aria Non disponibile.
Flu Activity Non disponibile.
METAR KTQH 230415Z AUTO 13014G18KT 7SM SCT006 BKN040 OVC049 12/11 A2976 RMK AO2

More Conditions Fewer Conditions

10-Day Weather Forecast

Almanac

Astronomia

Nov. 22, 2014 Alba Tramonto
Ora attuale
Crepuscolo civile
Crepuscolo nautico
Crepuscolo astronomico
Luna
Estensione della luce visibile
Lunghezza del giorno
Tomorrow will be .
, % of the Moon is Illuminated

Gli estremi di oggi

State Highs State Lows

Community

WunderPhotos

Upload Photos

1,772,997 foto caricate!

WunderBlogs® & News

Nearby

Qualità dell'aria

  Qualità dell'aria Indice AQ Inquinante
Not available.

Profondità neve

Stazione Profondità Altitudine

Attività sismica

Città  Distanza Mag. Data & Ora
Minimo Magnitudo Mostrato è 2.5.

Temperature delle acque costiere

Località Temperatura

Stazioni meteo nelle vicinanze